sensor_id;sensor_type;location;lat;lon;timestamp;temperature;humidity
79016;DHT22;72726;44.842;37.556;2023-10-13T00:00:45;8.49;81.65
79016;DHT22;72726;44.842;37.556;2023-10-13T00:01:50;8.49;81.74
79016;DHT22;72726;44.842;37.556;2023-10-13T00:02:53;8.50;81.79
79016;DHT22;72726;44.842;37.556;2023-10-13T00:03:55;8.50;81.81
79016;DHT22;72726;44.842;37.556;2023-10-13T00:04:56;8.49;81.86
79016;DHT22;72726;44.842;37.556;2023-10-13T00:05:58;8.52;82.14
79016;DHT22;72726;44.842;37.556;2023-10-13T00:07:04;8.53;82.12
79016;DHT22;72726;44.842;37.556;2023-10-13T00:08:10;8.52;82.23
79016;DHT22;72726;44.842;37.556;2023-10-13T00:09:11;8.53;82.20
79016;DHT22;72726;44.842;37.556;2023-10-13T00:10:15;8.52;82.13
79016;DHT22;72726;44.842;37.556;2023-10-13T00:11:20;8.53;82.07
79016;DHT22;72726;44.842;37.556;2023-10-13T00:12:22;8.49;82.07
79016;DHT22;72726;44.842;37.556;2023-10-13T00:13:34;8.47;82.15
79016;DHT22;72726;44.842;37.556;2023-10-13T00:14:44;8.46;81.94
79016;DHT22;72726;44.842;37.556;2023-10-13T00:15:47;8.45;81.85
79016;DHT22;72726;44.842;37.556;2023-10-13T00:16:58;8.45;81.88
79016;DHT22;72726;44.842;37.556;2023-10-13T00:18:06;8.45;81.86
79016;DHT22;72726;44.842;37.556;2023-10-13T00:19:16;8.45;81.91
79016;DHT22;72726;44.842;37.556;2023-10-13T00:20:19;8.46;81.62
79016;DHT22;72726;44.842;37.556;2023-10-13T00:21:35;8.45;81.53
79016;DHT22;72726;44.842;37.556;2023-10-13T00:22:37;8.45;81.96
79016;DHT22;72726;44.842;37.556;2023-10-13T00:23:42;8.46;81.86
79016;DHT22;72726;44.842;37.556;2023-10-13T00:24:58;8.46;81.87
79016;DHT22;72726;44.842;37.556;2023-10-13T00:26:24;8.47;81.88
79016;DHT22;72726;44.842;37.556;2023-10-13T00:27:29;8.52;81.80
79016;DHT22;72726;44.842;37.556;2023-10-13T00:28:31;8.49;81.51
79016;DHT22;72726;44.842;37.556;2023-10-13T00:29:36;8.50;81.79
79016;DHT22;72726;44.842;37.556;2023-10-13T00:30:39;8.56;81.72
79016;DHT22;72726;44.842;37.556;2023-10-13T00:31:43;8.53;81.75
79016;DHT22;72726;44.842;37.556;2023-10-13T00:32:46;8.53;81.75
79016;DHT22;72726;44.842;37.556;2023-10-13T00:33:57;8.54;81.75
79016;DHT22;72726;44.842;37.556;2023-10-13T00:35:03;8.52;81.86
79016;DHT22;72726;44.842;37.556;2023-10-13T00:36:17;8.56;81.86
79016;DHT22;72726;44.842;37.556;2023-10-13T00:37:20;8.57;81.82
79016;DHT22;72726;44.842;37.556;2023-10-13T00:38:29;8.56;81.64
79016;DHT22;72726;44.842;37.556;2023-10-13T00:39:30;8.56;81.44
79016;DHT22;72726;44.842;37.556;2023-10-13T00:40:32;8.57;81.33
79016;DHT22;72726;44.842;37.556;2023-10-13T00:41:33;8.57;81.22
79016;DHT22;72726;44.842;37.556;2023-10-13T00:42:54;8.59;80.99
79016;DHT22;72726;44.842;37.556;2023-10-13T00:43:56;8.56;81.22
79016;DHT22;72726;44.842;37.556;2023-10-13T00:45:09;8.57;81.10
79016;DHT22;72726;44.842;37.556;2023-10-13T00:46:17;8.57;81.28
79016;DHT22;72726;44.842;37.556;2023-10-13T00:47:20;8.60;81.24
79016;DHT22;72726;44.842;37.556;2023-10-13T00:48:53;8.63;81.28
79016;DHT22;72726;44.842;37.556;2023-10-13T00:49:56;8.64;81.15
79016;DHT22;72726;44.842;37.556;2023-10-13T00:52:04;8.64;81.13
79016;DHT22;72726;44.842;37.556;2023-10-13T00:53:08;8.64;81.30
79016;DHT22;72726;44.842;37.556;2023-10-13T00:54:10;8.68;81.28
79016;DHT22;72726;44.842;37.556;2023-10-13T00:55:14;8.71;81.26
79016;DHT22;72726;44.842;37.556;2023-10-13T00:56:18;8.71;81.20
79016;DHT22;72726;44.842;37.556;2023-10-13T00:57:20;8.71;81.10
79016;DHT22;72726;44.842;37.556;2023-10-13T00:58:29;8.74;81.26
79016;DHT22;72726;44.842;37.556;2023-10-13T00:59:31;8.75;81.07
79016;DHT22;72726;44.842;37.556;2023-10-13T01:00:37;8.74;81.05
79016;DHT22;72726;44.842;37.556;2023-10-13T01:01:48;8.83;80.80
79016;DHT22;72726;44.842;37.556;2023-10-13T01:02:55;8.81;80.65
79016;DHT22;72726;44.842;37.556;2023-10-13T01:04:23;8.84;80.69
79016;DHT22;72726;44.842;37.556;2023-10-13T01:05:28;8.85;80.77
79016;DHT22;72726;44.842;37.556;2023-10-13T01:06:32;8.85;80.75
79016;DHT22;72726;44.842;37.556;2023-10-13T01:07:35;8.87;80.79
79016;DHT22;72726;44.842;37.556;2023-10-13T01:08:38;8.91;80.67
79016;DHT22;72726;44.842;37.556;2023-10-13T01:09:41;8.89;80.71
79016;DHT22;72726;44.842;37.556;2023-10-13T01:10:43;8.94;80.49
79016;DHT22;72726;44.842;37.556;2023-10-13T01:11:49;8.94;80.34
79016;DHT22;72726;44.842;37.556;2023-10-13T01:12:54;8.97;80.06
79016;DHT22;72726;44.842;37.556;2023-10-13T01:13:56;8.92;79.87
79016;DHT22;72726;44.842;37.556;2023-10-13T01:14:58;8.91;79.72
79016;DHT22;72726;44.842;37.556;2023-10-13T01:16:00;8.91;79.71
79016;DHT22;72726;44.842;37.556;2023-10-13T01:17:03;8.91;79.71
79016;DHT22;72726;44.842;37.556;2023-10-13T01:18:12;8.89;79.83
79016;DHT22;72726;44.842;37.556;2023-10-13T01:19:16;8.88;80.00
79016;DHT22;72726;44.842;37.556;2023-10-13T01:20:28;8.88;79.99
79016;DHT22;72726;44.842;37.556;2023-10-13T01:21:32;8.91;79.96
79016;DHT22;72726;44.842;37.556;2023-10-13T01:22:35;8.89;80.05
79016;DHT22;72726;44.842;37.556;2023-10-13T01:23:40;8.89;79.98
79016;DHT22;72726;44.842;37.556;2023-10-13T01:24:44;8.92;79.96
79016;DHT22;72726;44.842;37.556;2023-10-13T01:25:46;8.94;79.73
79016;DHT22;72726;44.842;37.556;2023-10-13T01:26:50;8.94;79.64
79016;DHT22;72726;44.842;37.556;2023-10-13T01:27:54;8.92;79.40
79016;DHT22;72726;44.842;37.556;2023-10-13T01:28:59;8.87;79.25
79016;DHT22;72726;44.842;37.556;2023-10-13T01:30:01;8.88;79.33
79016;DHT22;72726;44.842;37.556;2023-10-13T01:31:11;8.87;79.37
79016;DHT22;72726;44.842;37.556;2023-10-13T01:32:19;8.84;79.42
79016;DHT22;72726;44.842;37.556;2023-10-13T01:33:20;8.81;79.41
79016;DHT22;72726;44.842;37.556;2023-10-13T01:34:29;8.80;79.54
79016;DHT22;72726;44.842;37.556;2023-10-13T01:35:35;8.77;79.49
79016;DHT22;72726;44.842;37.556;2023-10-13T01:36:38;8.74;79.58
79016;DHT22;72726;44.842;37.556;2023-10-13T01:37:41;8.73;79.74
79016;DHT22;72726;44.842;37.556;2023-10-13T01:38:43;8.71;79.93
79016;DHT22;72726;44.842;37.556;2023-10-13T01:39:44;8.70;79.98
79016;DHT22;72726;44.842;37.556;2023-10-13T01:40:50;8.67;80.05
79016;DHT22;72726;44.842;37.556;2023-10-13T01:41:54;8.64;80.03
79016;DHT22;72726;44.842;37.556;2023-10-13T01:42:58;8.59;80.02
79016;DHT22;72726;44.842;37.556;2023-10-13T01:44:00;8.56;80.03
79016;DHT22;72726;44.842;37.556;2023-10-13T01:45:03;8.53;80.13
79016;DHT22;72726;44.842;37.556;2023-10-13T01:46:09;8.56;80.17
79016;DHT22;72726;44.842;37.556;2023-10-13T01:47:11;8.56;80.43
79016;DHT22;72726;44.842;37.556;2023-10-13T01:48:13;8.59;80.41
79016;DHT22;72726;44.842;37.556;2023-10-13T01:49:19;8.57;80.37
79016;DHT22;72726;44.842;37.556;2023-10-13T01:50:24;8.60;80.40
79016;DHT22;72726;44.842;37.556;2023-10-13T01:51:32;8.57;80.20
79016;DHT22;72726;44.842;37.556;2023-10-13T01:52:34;8.61;80.14
79016;DHT22;72726;44.842;37.556;2023-10-13T01:53:37;8.60;80.00
79016;DHT22;72726;44.842;37.556;2023-10-13T01:54:42;8.59;79.89
79016;DHT22;72726;44.842;37.556;2023-10-13T01:55:46;8.56;80.07
79016;DHT22;72726;44.842;37.556;2023-10-13T01:56:47;8.56;80.06
79016;DHT22;72726;44.842;37.556;2023-10-13T01:57:50;8.53;80.10
79016;DHT22;72726;44.842;37.556;2023-10-13T01:58:53;8.53;80.27
79016;DHT22;72726;44.842;37.556;2023-10-13T01:59:55;8.52;80.48
79016;DHT22;72726;44.842;37.556;2023-10-13T02:00:57;8.52;80.95
79016;DHT22;72726;44.842;37.556;2023-10-13T02:02:01;8.53;81.17
79016;DHT22;72726;44.842;37.556;2023-10-13T02:03:02;8.56;81.49
79016;DHT22;72726;44.842;37.556;2023-10-13T02:04:04;8.59;81.39
79016;DHT22;72726;44.842;37.556;2023-10-13T02:05:06;8.63;81.28
79016;DHT22;72726;44.842;37.556;2023-10-13T02:06:07;8.66;81.21
79016;DHT22;72726;44.842;37.556;2023-10-13T02:07:11;8.68;81.15
79016;DHT22;72726;44.842;37.556;2023-10-13T02:08:18;8.67;81.40
79016;DHT22;72726;44.842;37.556;2023-10-13T02:09:29;8.73;81.66
79016;DHT22;72726;44.842;37.556;2023-10-13T02:10:31;8.77;81.62
79016;DHT22;72726;44.842;37.556;2023-10-13T02:11:33;8.80;81.53
79016;DHT22;72726;44.842;37.556;2023-10-13T02:12:34;8.83;81.43
79016;DHT22;72726;44.842;37.556;2023-10-13T02:13:58;8.88;81.35
79016;DHT22;72726;44.842;37.556;2023-10-13T02:15:01;8.87;81.40
79016;DHT22;72726;44.842;37.556;2023-10-13T02:16:06;8.94;81.24
79016;DHT22;72726;44.842;37.556;2023-10-13T02:17:08;8.95;81.29
79016;DHT22;72726;44.842;37.556;2023-10-13T02:18:19;9.00;81.13
79016;DHT22;72726;44.842;37.556;2023-10-13T02:19:44;9.01;80.65
79016;DHT22;72726;44.842;37.556;2023-10-13T02:20:47;9.05;80.81
79016;DHT22;72726;44.842;37.556;2023-10-13T02:21:55;9.04;80.33
79016;DHT22;72726;44.842;37.556;2023-10-13T02:23:00;9.05;77.69
79016;DHT22;72726;44.842;37.556;2023-10-13T02:24:01;8.80;73.95
79016;DHT22;72726;44.842;37.556;2023-10-13T02:25:05;8.63;75.21
79016;DHT22;72726;44.842;37.556;2023-10-13T02:26:08;8.47;76.03
79016;DHT22;72726;44.842;37.556;2023-10-13T02:27:14;8.46;77.35
79016;DHT22;72726;44.842;37.556;2023-10-13T02:28:15;8.43;78.50
79016;DHT22;72726;44.842;37.556;2023-10-13T02:29:28;8.42;78.71
79016;DHT22;72726;44.842;37.556;2023-10-13T02:30:30;8.45;78.53
79016;DHT22;72726;44.842;37.556;2023-10-13T02:31:35;8.43;77.76
79016;DHT22;72726;44.842;37.556;2023-10-13T02:32:37;8.36;76.65
79016;DHT22;72726;44.842;37.556;2023-10-13T02:33:41;8.33;76.56
79016;DHT22;72726;44.842;37.556;2023-10-13T02:34:46;8.25;76.49
79016;DHT22;72726;44.842;37.556;2023-10-13T02:35:48;8.19;77.10
79016;DHT22;72726;44.842;37.556;2023-10-13T02:36:55;8.12;78.01
79016;DHT22;72726;44.842;37.556;2023-10-13T02:37:57;8.12;78.07
79016;DHT22;72726;44.842;37.556;2023-10-13T02:39:06;8.09;78.17
79016;DHT22;72726;44.842;37.556;2023-10-13T02:40:11;8.09;78.42
79016;DHT22;72726;44.842;37.556;2023-10-13T02:41:17;8.11;79.45
79016;DHT22;72726;44.842;37.556;2023-10-13T02:42:29;8.08;78.72
79016;DHT22;72726;44.842;37.556;2023-10-13T02:43:34;8.06;78.68
79016;DHT22;72726;44.842;37.556;2023-10-13T02:44:36;8.02;78.78
79016;DHT22;72726;44.842;37.556;2023-10-13T02:45:40;8.01;79.08
79016;DHT22;72726;44.842;37.556;2023-10-13T02:46:42;8.02;79.23
79016;DHT22;72726;44.842;37.556;2023-10-13T02:47:44;8.03;79.31
79016;DHT22;72726;44.842;37.556;2023-10-13T02:48:45;7.99;77.66
79016;DHT22;72726;44.842;37.556;2023-10-13T02:49:47;7.87;76.68
79016;DHT22;72726;44.842;37.556;2023-10-13T02:50:57;7.64;77.13
79016;DHT22;72726;44.842;37.556;2023-10-13T02:51:58;7.46;78.16
79016;DHT22;72726;44.842;37.556;2023-10-13T02:53:06;7.39;78.83
79016;DHT22;72726;44.842;37.556;2023-10-13T02:54:15;7.32;79.02
79016;DHT22;72726;44.842;37.556;2023-10-13T02:55:19;7.32;79.21
79016;DHT22;72726;44.842;37.556;2023-10-13T02:56:26;7.30;79.19
79016;DHT22;72726;44.842;37.556;2023-10-13T02:57:28;7.32;79.15
79016;DHT22;72726;44.842;37.556;2023-10-13T02:58:32;7.30;79.06
79016;DHT22;72726;44.842;37.556;2023-10-13T02:59:39;7.32;78.92
79016;DHT22;72726;44.842;37.556;2023-10-13T03:00:41;7.32;78.73
79016;DHT22;72726;44.842;37.556;2023-10-13T03:01:42;7.32;78.55
79016;DHT22;72726;44.842;37.556;2023-10-13T03:02:44;7.30;79.02
79016;DHT22;72726;44.842;37.556;2023-10-13T03:03:55;7.28;79.34
79016;DHT22;72726;44.842;37.556;2023-10-13T03:04:57;7.28;79.39
79016;DHT22;72726;44.842;37.556;2023-10-13T03:06:18;7.22;78.70
79016;DHT22;72726;44.842;37.556;2023-10-13T03:07:25;7.16;79.01
79016;DHT22;72726;44.842;37.556;2023-10-13T03:08:29;7.14;78.95
79016;DHT22;72726;44.842;37.556;2023-10-13T03:09:32;7.16;78.89
79016;DHT22;72726;44.842;37.556;2023-10-13T03:10:38;7.15;78.90
79016;DHT22;72726;44.842;37.556;2023-10-13T03:11:48;7.14;79.16
79016;DHT22;72726;44.842;37.556;2023-10-13T03:12:50;7.14;78.58
79016;DHT22;72726;44.842;37.556;2023-10-13T03:13:52;7.09;78.57
79016;DHT22;72726;44.842;37.556;2023-10-13T03:14:53;7.07;78.89
79016;DHT22;72726;44.842;37.556;2023-10-13T03:16:14;7.07;78.97
79016;DHT22;72726;44.842;37.556;2023-10-13T03:17:20;7.08;79.25
79016;DHT22;72726;44.842;37.556;2023-10-13T03:18:33;7.11;79.46
79016;DHT22;72726;44.842;37.556;2023-10-13T03:19:36;7.09;78.96
79016;DHT22;72726;44.842;37.556;2023-10-13T03:20:39;7.09;78.16
79016;DHT22;72726;44.842;37.556;2023-10-13T03:21:43;7.08;77.99
79016;DHT22;72726;44.842;37.556;2023-10-13T03:22:47;7.04;78.10
79016;DHT22;72726;44.842;37.556;2023-10-13T03:23:48;7.04;78.22
79016;DHT22;72726;44.842;37.556;2023-10-13T03:24:49;7.04;78.92
79016;DHT22;72726;44.842;37.556;2023-10-13T03:25:54;7.04;79.28
79016;DHT22;72726;44.842;37.556;2023-10-13T03:26:56;7.02;79.33
79016;DHT22;72726;44.842;37.556;2023-10-13T03:27:58;7.01;79.24
79016;DHT22;72726;44.842;37.556;2023-10-13T03:28:59;7.01;79.88
79016;DHT22;72726;44.842;37.556;2023-10-13T03:30:01;7.01;79.59
79016;DHT22;72726;44.842;37.556;2023-10-13T03:31:10;7.02;79.55
79016;DHT22;72726;44.842;37.556;2023-10-13T03:32:18;6.98;78.61
79016;DHT22;72726;44.842;37.556;2023-10-13T03:33:19;6.88;79.25
79016;DHT22;72726;44.842;37.556;2023-10-13T03:34:27;6.90;81.11
79016;DHT22;72726;44.842;37.556;2023-10-13T03:35:30;6.95;81.94
79016;DHT22;72726;44.842;37.556;2023-10-13T03:36:42;7.04;81.96
79016;DHT22;72726;44.842;37.556;2023-10-13T03:37:58;6.98;82.04
79016;DHT22;72726;44.842;37.556;2023-10-13T03:39:00;7.01;81.20
79016;DHT22;72726;44.842;37.556;2023-10-13T03:40:08;7.00;81.74
79016;DHT22;72726;44.842;37.556;2023-10-13T03:41:22;7.00;82.82
79016;DHT22;72726;44.842;37.556;2023-10-13T03:42:25;7.05;83.05
79016;DHT22;72726;44.842;37.556;2023-10-13T03:43:26;7.08;83.01
79016;DHT22;72726;44.842;37.556;2023-10-13T03:44:30;7.14;82.98
79016;DHT22;72726;44.842;37.556;2023-10-13T03:45:42;7.14;83.10
79016;DHT22;72726;44.842;37.556;2023-10-13T03:46:44;7.20;83.11
79016;DHT22;72726;44.842;37.556;2023-10-13T03:47:48;7.25;83.04
79016;DHT22;72726;44.842;37.556;2023-10-13T03:48:52;7.26;83.07
79016;DHT22;72726;44.842;37.556;2023-10-13T03:49:55;7.28;83.29
79016;DHT22;72726;44.842;37.556;2023-10-13T03:51:15;7.36;83.36
79016;DHT22;72726;44.842;37.556;2023-10-13T03:52:16;7.40;83.31
79016;DHT22;72726;44.842;37.556;2023-10-13T03:53:23;7.46;83.11
79016;DHT22;72726;44.842;37.556;2023-10-13T03:54:26;7.47;82.86
79016;DHT22;72726;44.842;37.556;2023-10-13T03:55:30;7.50;82.64
79016;DHT22;72726;44.842;37.556;2023-10-13T03:56:36;7.53;82.45
79016;DHT22;72726;44.842;37.556;2023-10-13T03:57:40;7.57;82.36
79016;DHT22;72726;44.842;37.556;2023-10-13T03:58:43;7.59;82.39
79016;DHT22;72726;44.842;37.556;2023-10-13T03:59:46;7.60;82.49
79016;DHT22;72726;44.842;37.556;2023-10-13T04:00:49;7.64;82.60
79016;DHT22;72726;44.842;37.556;2023-10-13T04:01:50;7.70;82.47
79016;DHT22;72726;44.842;37.556;2023-10-13T04:02:59;7.71;82.46
79016;DHT22;72726;44.842;37.556;2023-10-13T04:04:04;7.73;82.51
79016;DHT22;72726;44.842;37.556;2023-10-13T04:05:10;7.78;82.50
79016;DHT22;72726;44.842;37.556;2023-10-13T04:06:31;7.85;82.27
79016;DHT22;72726;44.842;37.556;2023-10-13T04:07:47;7.88;82.41
79016;DHT22;72726;44.842;37.556;2023-10-13T04:09:07;7.92;82.16
79016;DHT22;72726;44.842;37.556;2023-10-13T04:10:27;7.98;81.88
79016;DHT22;72726;44.842;37.556;2023-10-13T04:11:47;8.01;81.66
79016;DHT22;72726;44.842;37.556;2023-10-13T04:13:03;8.02;81.42
79016;DHT22;72726;44.842;37.556;2023-10-13T04:14:23;8.03;81.33
79016;DHT22;72726;44.842;37.556;2023-10-13T04:15:44;8.09;81.15
79016;DHT22;72726;44.842;37.556;2023-10-13T04:17:04;8.13;80.94
79016;DHT22;72726;44.842;37.556;2023-10-13T04:18:14;8.15;80.94
79016;DHT22;72726;44.842;37.556;2023-10-13T04:19:38;8.18;81.00
79016;DHT22;72726;44.842;37.556;2023-10-13T04:21:00;8.24;81.01
79016;DHT22;72726;44.842;37.556;2023-10-13T04:22:19;8.25;80.87
79016;DHT22;72726;44.842;37.556;2023-10-13T04:23:21;8.32;80.78
79016;DHT22;72726;44.842;37.556;2023-10-13T04:24:28;8.36;80.80
79016;DHT22;72726;44.842;37.556;2023-10-13T04:25:36;8.45;80.66
79016;DHT22;72726;44.842;37.556;2023-10-13T04:26:53;8.54;80.59
79016;DHT22;72726;44.842;37.556;2023-10-13T04:28:14;8.64;80.17
79016;DHT22;72726;44.842;37.556;2023-10-13T04:29:18;8.71;80.11
79016;DHT22;72726;44.842;37.556;2023-10-13T04:30:40;8.81;79.81
79016;DHT22;72726;44.842;37.556;2023-10-13T04:31:57;8.89;79.65
79016;DHT22;72726;44.842;37.556;2023-10-13T04:33:01;8.97;79.34
79016;DHT22;72726;44.842;37.556;2023-10-13T04:34:28;9.02;79.23
79016;DHT22;72726;44.842;37.556;2023-10-13T04:35:38;9.08;79.11
79016;DHT22;72726;44.842;37.556;2023-10-13T04:36:54;9.15;78.86
79016;DHT22;72726;44.842;37.556;2023-10-13T04:38:12;9.25;78.66
79016;DHT22;72726;44.842;37.556;2023-10-13T04:39:21;9.29;78.44
79016;DHT22;72726;44.842;37.556;2023-10-13T04:40:41;9.36;78.35
79016;DHT22;72726;44.842;37.556;2023-10-13T04:41:59;9.46;78.11
79016;DHT22;72726;44.842;37.556;2023-10-13T04:43:12;9.54;77.83
79016;DHT22;72726;44.842;37.556;2023-10-13T04:44:34;9.58;77.81
79016;DHT22;72726;44.842;37.556;2023-10-13T04:45:53;9.63;77.77
79016;DHT22;72726;44.842;37.556;2023-10-13T04:47:00;9.67;77.87
79016;DHT22;72726;44.842;37.556;2023-10-13T04:48:01;9.69;77.69
79016;DHT22;72726;44.842;37.556;2023-10-13T04:49:19;9.69;77.63
79016;DHT22;72726;44.842;37.556;2023-10-13T04:50:35;9.70;77.82
79016;DHT22;72726;44.842;37.556;2023-10-13T04:51:45;9.77;77.94
79016;DHT22;72726;44.842;37.556;2023-10-13T04:52:59;9.87;77.53
79016;DHT22;72726;44.842;37.556;2023-10-13T04:54:04;9.94;77.39
79016;DHT22;72726;44.842;37.556;2023-10-13T04:55:12;10.01;77.23
79016;DHT22;72726;44.842;37.556;2023-10-13T04:56:37;10.08;77.03
79016;DHT22;72726;44.842;37.556;2023-10-13T04:57:59;10.18;76.88
79016;DHT22;72726;44.842;37.556;2023-10-13T04:59:15;10.28;76.70
79016;DHT22;72726;44.842;37.556;2023-10-13T05:00:36;10.35;76.66
79016;DHT22;72726;44.842;37.556;2023-10-13T05:01:55;10.43;76.62
79016;DHT22;72726;44.842;37.556;2023-10-13T05:03:15;10.46;76.98
79016;DHT22;72726;44.842;37.556;2023-10-13T05:04:43;10.56;76.62
79016;DHT22;72726;44.842;37.556;2023-10-13T05:06:10;10.63;76.02
79016;DHT22;72726;44.842;37.556;2023-10-13T05:07:32;10.71;75.61
79016;DHT22;72726;44.842;37.556;2023-10-13T05:08:52;10.80;75.45
79016;DHT22;72726;44.842;37.556;2023-10-13T05:10:23;10.85;75.17
79016;DHT22;72726;44.842;37.556;2023-10-13T05:11:43;10.88;75.00
79016;DHT22;72726;44.842;37.556;2023-10-13T05:13:03;10.97;74.75
79016;DHT22;72726;44.842;37.556;2023-10-13T05:14:23;11.04;74.65
79016;DHT22;72726;44.842;37.556;2023-10-13T05:15:44;11.11;74.17
79016;DHT22;72726;44.842;37.556;2023-10-13T05:17:04;11.18;73.83
79016;DHT22;72726;44.842;37.556;2023-10-13T05:18:24;11.26;73.65
79016;DHT22;72726;44.842;37.556;2023-10-13T05:19:44;11.33;73.33
79016;DHT22;72726;44.842;37.556;2023-10-13T05:21:04;11.40;73.21
79016;DHT22;72726;44.842;37.556;2023-10-13T05:22:24;11.47;72.98
79016;DHT22;72726;44.842;37.556;2023-10-13T05:23:44;11.55;72.87
79016;DHT22;72726;44.842;37.556;2023-10-13T05:25:04;11.59;72.81
79016;DHT22;72726;44.842;37.556;2023-10-13T05:26:24;11.63;72.92
79016;DHT22;72726;44.842;37.556;2023-10-13T05:27:44;11.71;72.95
79016;DHT22;72726;44.842;37.556;2023-10-13T05:29:04;11.78;72.50
79016;DHT22;72726;44.842;37.556;2023-10-13T05:30:28;11.87;72.63
79016;DHT22;72726;44.842;37.556;2023-10-13T05:31:48;11.91;74.29
79016;DHT22;72726;44.842;37.556;2023-10-13T05:33:08;11.94;74.20
79016;DHT22;72726;44.842;37.556;2023-10-13T05:34:28;11.99;74.43
79016;DHT22;72726;44.842;37.556;2023-10-13T05:35:49;12.05;74.85
79016;DHT22;72726;44.842;37.556;2023-10-13T05:37:09;12.06;74.53
79016;DHT22;72726;44.842;37.556;2023-10-13T05:38:29;12.08;74.29
79016;DHT22;72726;44.842;37.556;2023-10-13T05:39:49;12.05;74.47
79016;DHT22;72726;44.842;37.556;2023-10-13T05:41:14;12.05;74.85
79016;DHT22;72726;44.842;37.556;2023-10-13T05:42:33;12.04;74.97
79016;DHT22;72726;44.842;37.556;2023-10-13T05:43:54;12.08;75.04
79016;DHT22;72726;44.842;37.556;2023-10-13T05:45:14;12.17;75.64
79016;DHT22;72726;44.842;37.556;2023-10-13T05:46:18;12.26;75.37
79016;DHT22;72726;44.842;37.556;2023-10-13T05:47:28;12.29;75.36
79016;DHT22;72726;44.842;37.556;2023-10-13T05:48:44;12.32;74.83
79016;DHT22;72726;44.842;37.556;2023-10-13T05:50:01;12.35;74.70
79016;DHT22;72726;44.842;37.556;2023-10-13T05:51:31;12.39;74.55
79016;DHT22;72726;44.842;37.556;2023-10-13T05:52:51;12.42;74.18
79016;DHT22;72726;44.842;37.556;2023-10-13T05:53:59;12.45;73.92
79016;DHT22;72726;44.842;37.556;2023-10-13T05:55:17;12.49;74.10
79016;DHT22;72726;44.842;37.556;2023-10-13T05:56:37;12.53;73.97
79016;DHT22;72726;44.842;37.556;2023-10-13T05:58:05;12.57;74.57
79016;DHT22;72726;44.842;37.556;2023-10-13T05:59:26;12.64;73.86
79016;DHT22;72726;44.842;37.556;2023-10-13T06:00:46;12.70;73.61
79016;DHT22;72726;44.842;37.556;2023-10-13T06:02:06;12.73;73.74
79016;DHT22;72726;44.842;37.556;2023-10-13T06:03:26;12.79;73.54
79016;DHT22;72726;44.842;37.556;2023-10-13T06:04:46;12.86;73.54
79016;DHT22;72726;44.842;37.556;2023-10-13T06:06:07;12.94;73.91
79016;DHT22;72726;44.842;37.556;2023-10-13T06:07:26;13.05;71.86
79016;DHT22;72726;44.842;37.556;2023-10-13T06:08:48;13.11;71.38
79016;DHT22;72726;44.842;37.556;2023-10-13T06:10:08;13.14;71.66
79016;DHT22;72726;44.842;37.556;2023-10-13T06:11:28;13.15;71.62
79016;DHT22;72726;44.842;37.556;2023-10-13T06:12:48;13.15;71.68
79016;DHT22;72726;44.842;37.556;2023-10-13T06:14:09;13.18;71.93
79016;DHT22;72726;44.842;37.556;2023-10-13T06:15:29;13.19;72.20
79016;DHT22;72726;44.842;37.556;2023-10-13T06:16:49;13.18;70.79
79016;DHT22;72726;44.842;37.556;2023-10-13T06:18:08;13.22;71.39
79016;DHT22;72726;44.842;37.556;2023-10-13T06:19:28;13.26;70.36
79016;DHT22;72726;44.842;37.556;2023-10-13T06:20:48;13.28;69.91
79016;DHT22;72726;44.842;37.556;2023-10-13T06:22:08;13.34;69.65
79016;DHT22;72726;44.842;37.556;2023-10-13T06:23:28;13.38;68.71
79016;DHT22;72726;44.842;37.556;2023-10-13T06:24:48;13.42;68.96
79016;DHT22;72726;44.842;37.556;2023-10-13T06:26:08;13.48;68.99
79016;DHT22;72726;44.842;37.556;2023-10-13T06:27:28;13.55;69.54
79016;DHT22;72726;44.842;37.556;2023-10-13T06:28:48;13.69;68.95
79016;DHT22;72726;44.842;37.556;2023-10-13T06:29:52;13.76;68.47
79016;DHT22;72726;44.842;37.556;2023-10-13T06:30:58;13.81;67.42
79016;DHT22;72726;44.842;37.556;2023-10-13T06:31:59;13.84;67.48
79016;DHT22;72726;44.842;37.556;2023-10-13T06:33:02;13.90;66.73
79016;DHT22;72726;44.842;37.556;2023-10-13T06:34:05;13.94;66.47
79016;DHT22;72726;44.842;37.556;2023-10-13T06:35:07;14.01;66.25
79016;DHT22;72726;44.842;37.556;2023-10-13T06:36:08;14.04;66.31
79016;DHT22;72726;44.842;37.556;2023-10-13T06:37:14;14.10;66.83
79016;DHT22;72726;44.842;37.556;2023-10-13T06:38:48;14.20;65.56
79016;DHT22;72726;44.842;37.556;2023-10-13T06:40:09;14.24;66.17
79016;DHT22;72726;44.842;37.556;2023-10-13T06:41:29;14.35;65.30
79016;DHT22;72726;44.842;37.556;2023-10-13T06:42:42;14.42;66.06
79016;DHT22;72726;44.842;37.556;2023-10-13T06:43:44;14.49;65.68
79016;DHT22;72726;44.842;37.556;2023-10-13T06:44:47;14.49;64.57
79016;DHT22;72726;44.842;37.556;2023-10-13T06:45:49;14.50;63.93
79016;DHT22;72726;44.842;37.556;2023-10-13T06:47:04;14.52;63.67
79016;DHT22;72726;44.842;37.556;2023-10-13T06:48:07;14.56;63.90
79016;DHT22;72726;44.842;37.556;2023-10-13T06:49:12;14.65;63.02
79016;DHT22;72726;44.842;37.556;2023-10-13T06:50:15;14.67;62.94
79016;DHT22;72726;44.842;37.556;2023-10-13T06:51:17;14.76;62.44
79016;DHT22;72726;44.842;37.556;2023-10-13T06:52:19;14.81;62.03
79016;DHT22;72726;44.842;37.556;2023-10-13T06:53:20;14.83;61.83
79016;DHT22;72726;44.842;37.556;2023-10-13T06:54:22;14.86;61.77
79016;DHT22;72726;44.842;37.556;2023-10-13T06:55:26;14.90;61.63
79016;DHT22;72726;44.842;37.556;2023-10-13T06:56:36;14.93;61.49
79016;DHT22;72726;44.842;37.556;2023-10-13T06:57:40;14.97;61.05
79016;DHT22;72726;44.842;37.556;2023-10-13T06:58:45;15.01;60.85
79016;DHT22;72726;44.842;37.556;2023-10-13T06:59:48;15.03;60.36
79016;DHT22;72726;44.842;37.556;2023-10-13T07:00:51;15.05;60.27
79016;DHT22;72726;44.842;37.556;2023-10-13T07:01:56;15.12;60.20
79016;DHT22;72726;44.842;37.556;2023-10-13T07:03:05;15.12;59.76
79016;DHT22;72726;44.842;37.556;2023-10-13T07:04:08;15.18;59.70
79016;DHT22;72726;44.842;37.556;2023-10-13T07:05:17;15.15;59.53
79016;DHT22;72726;44.842;37.556;2023-10-13T07:06:19;15.24;61.10
79016;DHT22;72726;44.842;37.556;2023-10-13T07:07:23;15.28;60.44
79016;DHT22;72726;44.842;37.556;2023-10-13T07:08:27;15.34;59.64
79016;DHT22;72726;44.842;37.556;2023-10-13T07:09:32;15.34;59.15
79016;DHT22;72726;44.842;37.556;2023-10-13T07:10:36;15.35;59.75
79016;DHT22;72726;44.842;37.556;2023-10-13T07:12:02;15.41;59.30
79016;DHT22;72726;44.842;37.556;2023-10-13T07:13:05;15.42;58.94
79016;DHT22;72726;44.842;37.556;2023-10-13T07:14:08;15.39;58.31
79016;DHT22;72726;44.842;37.556;2023-10-13T07:15:17;15.42;58.89
79016;DHT22;72726;44.842;37.556;2023-10-13T07:16:18;15.45;58.72
79016;DHT22;72726;44.842;37.556;2023-10-13T07:17:20;15.46;58.95